Time;durP1;ratioP1;P1;durP2;ratioP2;P2;SDS_P1;SDS_P2;PMS_P1;PMS_P2;Temp;Humidity;BMP_temperature;BMP_pressure;BME280_temperature;BME280_humidity;BME280_pressure;Samples;Min_cycle;Max_cycle;Signal;HPM_P1;HPM_P2
2024/03/18 00:01:57;;;;;;;;;0.00;0.00;;;;;20.29;100.00;101306.91;6270958;22;28536;-83
2024/03/18 00:04:22;;;;;;;;;0.00;0.00;;;;;20.37;100.00;101313.50;6270329;22;39682;-84
2024/03/18 00:06:48;;;;;;;;;0.00;0.00;;;;;20.41;100.00;101304.44;6296371;22;40023;-84
2024/03/18 00:09:14;;;;;;;;;0.00;0.00;;;;;20.42;100.00;101308.81;6296550;22;28445;-83
2024/03/18 00:11:39;;;;;;;;;0.00;0.00;;;;;20.41;100.00;101313.25;6324838;22;28317;-83
2024/03/18 00:14:05;;;;;;;;;0.00;0.00;;;;;20.39;100.00;101299.28;6322042;22;46204;-83
2024/03/18 00:16:30;;;;;;;;;0.00;0.00;;;;;20.42;100.00;101298.22;6296847;22;28427;-85
2024/03/18 00:18:55;;;;;;;;;0.00;0.00;;;;;20.44;100.00;101291.88;6297123;22;28573;-83
2024/03/18 00:21:21;;;;;;;;;0.00;0.00;;;;;20.46;100.00;101294.44;6295061;22;33807;-84
2024/03/18 00:23:46;;;;;;;;;0.00;0.00;;;;;20.39;100.00;101301.91;6296735;22;35569;-84
2024/03/18 00:26:11;;;;;;;;;0.00;0.00;;;;;20.36;100.00;101288.03;6323891;22;47465;-83
2024/03/18 00:28:37;;;;;;;;;0.00;0.00;;;;;20.34;100.00;101288.13;6323396;22;48615;-83
2024/03/18 00:31:03;;;;;;;;;0.00;0.00;;;;;20.29;100.00;101288.41;6323252;22;28360;-83
2024/03/18 00:33:28;;;;;;;;;0.00;0.00;;;;;20.29;100.00;101290.19;6295501;22;28517;-85
2024/03/18 00:35:59;;;;;;;;;0.00;0.00;;;;;20.23;100.00;101291.41;6323928;22;32603;-84
2024/03/18 00:38:25;;;;;;;;;0.00;0.00;;;;;20.35;100.00;101286.31;6295708;22;29417;-84
2024/03/18 00:41:44;;;;;;;;;0.00;0.00;;;;;20.24;100.00;101285.16;6269522;22;52637;-84
2024/03/18 00:43:36;;;;;;;;;0.00;0.00;;;;;20.22;100.00;101294.16;6324398;22;28388;-84
2024/03/18 00:46:02;;;;;;;;;0.00;0.00;;;;;20.08;100.00;101272.06;6297023;22;28301;-84
2024/03/18 00:48:27;;;;;;;;;0.00;0.00;;;;;20.05;100.00;101293.38;6323821;22;28733;-83
2024/03/18 00:50:53;;;;;;;;;0.00;0.00;;;;;20.01;100.00;101293.66;6250064;22;50027;-84
2024/03/18 00:53:18;;;;;;;;;0.00;0.00;;;;;19.96;100.00;101293.06;6259905;22;32922;-84
2024/03/18 00:55:43;;;;;;;;;0.00;0.00;;;;;19.94;100.00;101287.03;6260811;22;44054;-82
2024/03/18 00:58:09;;;;;;;;;0.00;0.00;;;;;19.89;100.00;101288.16;6261659;22;28285;-83
2024/03/18 01:00:34;;;;;;;;;0.00;0.00;;;;;19.89;100.00;101284.66;6261081;22;37222;-84
2024/03/18 01:02:59;;;;;;;;;0.00;0.00;;;;;20.04;100.00;101281.13;6259260;22;50713;-84
2024/03/18 01:05:25;;;;;;;;;0.00;0.00;;;;;20.05;100.00;101276.66;6261598;22;28312;-83
2024/03/18 01:07:50;;;;;;;;;0.00;0.00;;;;;20.03;100.00;101286.50;6261352;22;48218;-83
2024/03/18 01:10:15;;;;;;;;;0.00;0.00;;;;;19.99;100.00;101277.06;6260514;22;46782;-83
2024/03/18 01:12:41;;;;;;;;;0.00;0.00;;;;;20.01;100.00;101283.94;6262248;22;28308;-83
2024/03/18 01:15:07;;;;;;;;;0.00;0.00;;;;;20.01;100.00;101278.66;6260580;22;45502;-83
2024/03/18 01:17:33;;;;;;;;;0.00;0.00;;;;;19.94;100.00;101273.84;6261711;22;29273;-83
2024/03/18 01:19:58;;;;;;;;;0.00;0.00;;;;;19.91;100.00;101264.31;6261135;22;28355;-84
2024/03/18 01:22:24;;;;;;;;;0.00;0.00;;;;;19.91;100.00;101278.34;6259917;22;28380;-85
2024/03/18 01:24:49;;;;;;;;;0.00;0.00;;;;;19.67;100.00;101272.69;6260876;22;28462;-85
2024/03/18 01:27:15;;;;;;;;;0.00;0.00;;;;;19.52;100.00;101261.25;6262024;22;29310;-83
2024/03/18 01:29:41;;;;;;;;;0.00;0.00;;;;;19.57;100.00;101266.25;6260385;22;33606;-83
2024/03/18 01:32:07;;;;;;;;;0.00;0.00;;;;;19.49;100.00;101263.22;6260450;22;28340;-83
2024/03/18 01:34:32;;;;;;;;;0.00;0.00;;;;;19.51;100.00;101256.06;6261113;22;39793;-84
2024/03/18 01:36:58;;;;;;;;;0.00;0.00;;;;;19.56;100.00;101256.63;6261543;22;29336;-83
2024/03/18 01:39:24;;;;;;;;;0.00;0.00;;;;;19.58;100.00;101251.28;6261701;22;28313;-84
2024/03/18 01:41:49;;;;;;;;;0.00;0.00;;;;;19.50;100.00;101243.78;6260120;22;28393;-84
2024/03/18 01:44:15;;;;;;;;;0.00;0.00;;;;;19.60;100.00;101244.94;6261595;22;28237;-83
2024/03/18 01:46:40;;;;;;;;;0.00;0.00;;;;;19.57;100.00;101239.84;6259498;22;28427;-83
2024/03/18 01:49:06;;;;;;;;;0.00;0.00;;;;;19.53;100.00;101236.53;6259188;22;28814;-83
2024/03/18 01:51:32;;;;;;;;;0.00;0.00;;;;;19.54;100.00;101237.41;6258242;22;28369;-84
2024/03/18 01:53:57;;;;;;;;;0.00;0.00;;;;;19.49;100.00;101226.25;6259984;22;28581;-85
2024/03/18 01:56:24;;;;;;;;;0.00;0.00;;;;;19.47;100.00;101228.97;6260684;22;28483;-83
2024/03/18 01:58:49;;;;;;;;;0.00;0.00;;;;;19.52;100.00;101228.72;6259842;22;28389;-84
2024/03/18 02:01:15;;;;;;;;;0.00;0.00;;;;;19.56;100.00;101229.38;6262412;22;28353;-84
2024/03/18 02:03:41;;;;;;;;;0.00;0.00;;;;;19.50;100.00;101225.28;6259895;22;28562;-83
2024/03/18 02:06:06;;;;;;;;;0.00;0.00;;;;;19.52;100.00;101221.66;6263339;22;28417;-84
2024/03/18 02:08:33;;;;;;;;;0.00;0.00;;;;;19.52;100.00;101221.66;6260335;22;28859;-84
2024/03/18 02:10:58;;;;;;;;;0.00;0.00;;;;;19.56;100.00;101218.81;6262407;22;28341;-83
2024/03/18 02:13:23;;;;;;;;;0.00;0.00;;;;;19.51;100.00;101219.94;6261354;22;28266;-84
2024/03/18 02:15:49;;;;;;;;;0.00;0.00;;;;;19.53;100.00;101223.31;6262161;22;29297;-84
2024/03/18 02:18:14;;;;;;;;;0.00;0.00;;;;;19.48;100.00;101216.63;6260417;22;43029;-84
2024/03/18 02:20:40;;;;;;;;;0.00;0.00;;;;;19.50;100.00;101223.53;6262508;22;39448;-84
2024/03/18 02:23:05;;;;;;;;;0.00;0.00;;;;;19.50;100.00;101212.97;6261697;22;28958;-85
2024/03/18 02:25:31;;;;;;;;;0.00;0.00;;;;;19.48;100.00;101212.22;6259841;22;38219;-84
2024/03/18 02:27:56;;;;;;;;;0.00;0.00;;;;;19.41;100.00;101202.94;6262676;22;28467;-84
2024/03/18 02:30:21;;;;;;;;;0.00;0.00;;;;;19.64;100.00;101195.44;6262341;22;39883;-83
2024/03/18 02:32:47;;;;;;;;;0.00;0.00;;;;;19.70;100.00;101189.78;6261530;22;35755;-84
2024/03/18 02:35:17;;;;;;;;;0.00;0.00;;;;;19.69;100.00;101181.03;6260263;22;28428;-83
2024/03/18 02:37:46;;;;;;;;;0.00;0.00;;;;;19.53;100.00;101186.34;6262892;22;28298;-83
2024/03/18 02:40:12;;;;;;;;;0.00;0.00;;;;;19.47;100.00;101209.66;6262312;22;28275;-84
2024/03/18 02:42:39;;;;;;;;;0.00;0.00;;;;;19.40;100.00;101216.22;6262784;22;28365;-83
2024/03/18 02:45:09;;;;;;;;;0.00;0.00;;;;;19.40;100.00;101224.16;6260905;22;28508;-85
2024/03/18 02:47:42;;;;;;;;;0.00;0.00;;;;;19.47;100.00;101217.56;6262493;22;28291;-84
2024/03/18 02:50:10;;;;;;;;;0.00;0.00;;;;;19.48;100.00;101216.63;6271487;22;28368;-84
2024/03/18 02:52:39;;;;;;;;;0.00;0.00;;;;;19.49;100.00;101211.25;6297080;22;28277;-84
2024/03/18 02:55:05;;;;;;;;;0.00;0.00;;;;;19.49;100.00;101205.97;6297248;22;31265;-83
2024/03/18 02:57:30;;;;;;;;;0.00;0.00;;;;;19.59;100.00;101205.44;6297540;22;28359;-83
2024/03/18 02:59:56;;;;;;;;;0.00;0.00;;;;;19.60;100.00;101204.50;6324098;22;42920;-83
2024/03/18 03:02:22;;;;;;;;;0.00;0.00;;;;;19.61;100.00;101204.38;6324743;22;28479;-83
2024/03/18 03:04:47;;;;;;;;;0.00;0.00;;;;;19.65;100.00;101208.56;6296887;22;28397;-83
2024/03/18 03:07:12;;;;;;;;;0.00;0.00;;;;;19.63;100.00;101212.22;6324245;22;34619;-83
2024/03/18 03:09:38;;;;;;;;;0.00;0.00;;;;;19.64;100.00;101209.50;6323856;22;33322;-84
2024/03/18 03:12:03;;;;;;;;;0.00;0.00;;;;;19.62;100.00;101208.75;6323920;22;42533;-84
2024/03/18 03:14:29;;;;;;;;;0.00;0.00;;;;;19.64;100.00;101211.28;6296373;22;28406;-82
2024/03/18 03:16:56;;;;;;;;;0.00;0.00;;;;;19.61;100.00;101209.66;6297587;22;28405;-83
2024/03/18 03:19:21;;;;;;;;;0.00;0.00;;;;;19.59;100.00;101218.63;6324432;22;28294;-84
2024/03/18 03:21:47;;;;;;;;;0.00;0.00;;;;;19.63;100.00;101225.44;6297285;22;28297;-84
2024/03/18 03:24:12;;;;;;;;;0.00;0.00;;;;;19.59;100.00;101222.09;6325005;22;28415;-84
2024/03/18 03:26:38;;;;;;;;;0.00;0.00;;;;;19.63;100.00;101222.78;6324049;22;28372;-84
2024/03/18 03:29:03;;;;;;;;;0.00;0.00;;;;;19.58;100.00;101227.50;6324285;22;28435;-84
2024/03/18 03:31:29;;;;;;;;;0.00;0.00;;;;;19.63;100.00;101234.22;6325183;22;28321;-84
2024/03/18 03:33:54;;;;;;;;;0.00;0.00;;;;;19.66;100.00;101239.28;6323911;22;47511;-84
2024/03/18 03:36:19;;;;;;;;;0.00;0.00;;;;;19.65;100.00;101234.09;6323397;22;28383;-83
2024/03/18 03:38:45;;;;;;;;;0.00;0.00;;;;;19.64;100.00;101241.19;6324731;22;37211;-84
2024/03/18 03:41:10;;;;;;;;;0.00;0.00;;;;;19.64;100.00;101241.19;6270219;22;48904;-84
2024/03/18 03:43:35;;;;;;;;;0.00;0.00;;;;;19.70;100.00;101238.16;6321686;22;41140;-83
2024/03/18 03:46:02;;;;;;;;;0.00;0.00;;;;;19.72;100.00;101248.66;6322946;22;44433;-84
2024/03/18 03:48:29;;;;;;;;;0.00;0.00;;;;;19.73;100.00;101240.66;6295487;22;28434;-84
2024/03/18 03:50:55;;;;;;;;;0.00;0.00;;;;;19.72;100.00;101246.00;6324186;22;28434;-83
2024/03/18 03:53:22;;;;;;;;;0.00;0.00;;;;;19.70;100.00;101238.16;6324234;22;29320;-84
2024/03/18 03:55:55;;;;;;;;;0.00;0.00;;;;;19.74;100.00;101252.06;6296411;22;28347;-84
2024/03/18 03:58:21;;;;;;;;;0.00;0.00;;;;;19.77;100.00;101266.91;6296986;22;28288;-83
2024/03/18 04:00:47;;;;;;;;;0.00;0.00;;;;;19.77;100.00;101257.19;6325209;22;28447;-84
2024/03/18 04:03:15;;;;;;;;;0.00;0.00;;;;;19.67;100.00;101263.94;6324207;22;28387;-83
2024/03/18 04:05:41;;;;;;;;;0.00;0.00;;;;;19.57;100.00;101263.59;6297006;22;28535;-85
2024/03/18 04:08:06;;;;;;;;;0.00;0.00;;;;;19.45;100.00;101264.34;6297480;22;28612;-84
2024/03/18 04:10:32;;;;;;;;;0.00;0.00;;;;;19.41;100.00;101273.34;6296731;22;38782;-83
2024/03/18 04:12:57;;;;;;;;;0.00;0.00;;;;;19.33;100.00;101276.44;6323364;22;28371;-84
2024/03/18 04:15:23;;;;;;;;;0.00;0.00;;;;;19.32;100.00;101274.75;6323986;22;28258;-84
2024/03/18 04:17:50;;;;;;;;;0.00;0.00;;;;;19.30;100.00;101271.34;6324358;22;28330;-83
2024/03/18 04:20:19;;;;;;;;;0.00;0.00;;;;;19.32;100.00;101272.09;6324618;22;28526;-83
2024/03/18 04:22:51;;;;;;;;;0.00;0.00;;;;;19.31;100.00;101279.16;6296436;22;29485;-83
2024/03/18 04:25:20;;;;;;;;;0.00;0.00;;;;;19.30;100.00;101272.19;6296965;22;28258;-83
2024/03/18 04:27:47;;;;;;;;;0.50;0.50;;;;;19.50;100.00;101270.19;6295848;22;28432;-83
2024/03/18 04:30:17;;;;;;;;;0.00;0.00;;;;;19.59;100.00;101279.38;6296626;22;28617;-84
2024/03/18 04:32:49;;;;;;;;;0.00;0.00;;;;;19.61;100.00;101285.41;6324767;22;28428;-84
2024/03/18 04:35:16;;;;;;;;;0.00;0.00;;;;;19.64;100.00;101286.06;6324350;22;28301;-85
2024/03/18 04:37:51;;;;;;;;;0.00;0.00;;;;;19.49;100.00;101297.53;6324364;22;28246;-83
2024/03/18 04:40:18;;;;;;;;;0.00;0.00;;;;;19.39;100.00;101297.22;6298919;22;28550;-84
2024/03/18 04:42:44;;;;;;;;;0.00;0.00;;;;;19.40;100.00;101303.34;6324411;22;29393;-83
2024/03/18 04:45:10;;;;;;;;;0.75;0.75;;;;;19.33;100.00;101290.50;6323881;22;28384;-84
2024/03/18 04:47:38;;;;;;;;;0.00;0.00;;;;;19.31;100.00;101296.78;6321186;22;28383;-83
2024/03/18 04:50:10;;;;;;;;;0.75;0.75;;;;;19.27;100.00;101293.47;6324717;22;28389;-83
2024/03/18 04:52:36;;;;;;;;;0.00;0.00;;;;;19.27;100.00;101296.09;6297064;22;28354;-83
2024/03/18 04:55:03;;;;;;;;;0.00;0.00;;;;;19.25;100.00;101302.41;6270765;22;28317;-83
2024/03/18 04:57:28;;;;;;;;;0.00;0.00;;;;;19.19;100.00;101305.41;6296404;22;28340;-84
2024/03/18 04:59:53;;;;;;;;;0.00;0.00;;;;;19.10;100.00;101307.63;6296448;22;43104;-84
2024/03/18 05:02:19;;;;;;;;;0.00;0.00;;;;;19.11;100.00;101311.97;6294433;22;45071;-83
2024/03/18 05:04:44;;;;;;;;;0.00;0.00;;;;;19.10;100.00;101309.41;6296419;22;28282;-83
2024/03/18 05:07:10;;;;;;;;;0.00;0.00;;;;;19.09;100.00;101302.41;6324010;22;33627;-84
2024/03/18 05:09:35;;;;;;;;;0.00;0.00;;;;;19.05;100.00;101304.38;6324080;22;28324;-84
2024/03/18 05:12:01;;;;;;;;;0.00;0.00;;;;;18.97;100.00;101311.88;6323681;22;28363;-83
2024/03/18 05:14:26;;;;;;;;;0.00;0.00;;;;;18.93;100.00;101315.63;6322470;22;29280;-84
2024/03/18 05:16:51;;;;;;;;;0.00;0.00;;;;;18.93;100.00;101315.63;6295499;22;47143;-83
2024/03/18 05:19:17;;;;;;;;;0.00;0.00;;;;;18.93;100.00;101318.25;6323557;22;27877;-83
2024/03/18 05:21:42;;;;;;;;;0.00;0.00;;;;;18.91;100.00;101320.97;6296227;22;46103;-83
2024/03/18 05:24:07;;;;;;;;;0.00;0.00;;;;;18.88;100.00;101326.41;6323914;22;28345;-84
2024/03/18 05:26:33;;;;;;;;;0.00;0.00;;;;;18.87;100.00;101329.13;6324278;22;30000;-83
2024/03/18 05:28:58;;;;;;;;;0.00;0.00;;;;;18.87;100.00;101331.75;6296343;22;28384;-84
2024/03/18 05:31:23;;;;;;;;;0.00;0.00;;;;;19.06;100.00;101336.91;6296509;22;29741;-83
2024/03/18 05:33:49;;;;;;;;;0.00;0.00;;;;;18.84;100.00;101337.22;6295598;22;41854;-83
2024/03/18 05:36:15;;;;;;;;;0.00;0.00;;;;;18.83;100.00;101343.41;6324514;22;28413;-83
2024/03/18 05:38:40;;;;;;;;;0.00;0.00;;;;;18.79;100.00;101323.41;6293749;22;47152;-83
2024/03/18 05:41:06;;;;;;;;;11.00;11.00;;;;;18.79;100.00;101332.16;6294753;22;44595;-83
2024/03/18 05:43:31;;;;;;;;;0.00;0.00;;;;;18.76;100.00;101340.25;6324118;22;28387;-84
2024/03/18 05:45:57;;;;;;;;;0.00;0.00;;;;;18.63;100.00;101349.72;6323512;22;28898;-83
2024/03/18 05:48:22;;;;;;;;;0.00;0.00;;;;;18.44;100.00;101342.78;6321387;22;28384;-82
2024/03/18 05:50:48;;;;;;;;;0.00;0.00;;;;;18.38;100.00;101351.84;6269086;22;50891;-84
2024/03/18 05:53:14;;;;;;;;;0.00;0.00;;;;;18.34;100.00;101346.84;6322763;22;28439;-82
2024/03/18 05:55:39;;;;;;;;;0.00;0.00;;;;;18.19;100.00;101344.06;6295117;22;28376;-83
2024/03/18 05:58:04;;;;;;;;;0.00;0.00;;;;;18.34;100.00;101347.69;6295423;22;53789;-81
2024/03/18 06:00:30;;;;;;;;;0.00;0.00;;;;;18.33;100.00;101345.13;6322880;22;48356;-84
2024/03/18 06:02:55;;;;;;;;;0.00;0.00;;;;;18.33;100.00;101353.03;6295895;22;28473;-83
2024/03/18 06:05:21;;;;;;;;;0.00;0.00;;;;;18.30;100.00;101354.06;6322284;22;28356;-83
2024/03/18 06:07:46;;;;;;;;;0.00;0.00;;;;;18.42;100.00;101354.34;6294874;22;44016;-84
2024/03/18 06:10:14;;;;;;;;;0.00;0.00;;;;;18.41;100.00;101352.66;6294664;22;29384;-82
2024/03/18 06:12:40;;;;;;;;;0.00;0.00;;;;;18.34;100.00;101355.59;6322089;22;28380;-82
2024/03/18 06:15:06;;;;;;;;;0.00;0.00;;;;;18.31;100.00;101358.41;6294936;22;28541;-82
2024/03/18 06:17:31;;;;;;;;;0.00;0.00;;;;;18.36;100.00;101366.91;6296372;22;28480;-82
2024/03/18 06:20:03;;;;;;;;;0.00;0.00;;;;;18.11;100.00;101369.13;6294443;22;50744;-85
2024/03/18 06:22:36;;;;;;;;;0.00;0.00;;;;;18.02;100.00;101374.84;6297339;22;28570;-84
2024/03/18 06:27:53;;;;;;;;;0.00;0.00;;;;;18.37;100.00;101378.31;6300551;22;28396;-90
2024/03/18 06:30:19;;;;;;;;;0.00;0.00;;;;;18.37;100.00;101380.97;6294578;22;28660;-85
2024/03/18 06:32:45;;;;;;;;;0.00;0.00;;;;;18.43;100.00;101390.34;6323431;22;28262;-87
2024/03/18 06:35:10;;;;;;;;;0.00;0.00;;;;;18.51;100.00;101396.03;6322459;22;28296;-85
2024/03/18 06:37:36;;;;;;;;;0.00;0.00;;;;;18.54;100.00;101401.16;6294359;22;39803;-85
2024/03/18 06:40:11;;;;;;;;;0.00;0.00;;;;;18.65;100.00;101405.88;6323109;22;28294;-85
2024/03/18 06:42:37;;;;;;;;;0.00;0.00;;;;;18.35;100.00;101396.00;6323203;22;28369;-86
2024/03/18 06:45:03;;;;;;;;;0.00;0.00;;;;;18.72;100.00;101402.84;6323807;22;28431;-84
2024/03/18 06:47:28;;;;;;;;;0.00;0.00;;;;;18.62;100.00;101417.44;6322921;22;28391;-85
2024/03/18 06:49:55;;;;;;;;;0.00;0.00;;;;;18.80;100.00;101406.88;6323371;22;29297;-82
2024/03/18 06:52:20;;;;;;;;;0.00;0.00;;;;;18.88;100.00;101413.44;6270220;22;40125;-84
2024/03/18 06:54:45;;;;;;;;;0.00;0.00;;;;;18.89;100.00;101409.06;6296195;22;48570;-83
2024/03/18 06:57:11;;;;;;;;;0.00;0.00;;;;;18.97;100.00;101419.19;6294103;22;44988;-82
2024/03/18 06:59:37;;;;;;;;;0.00;0.00;;;;;19.00;100.00;101414.59;6324225;22;28404;-85
2024/03/18 07:02:02;;;;;;;;;0.00;0.00;;;;;19.07;100.00;101423.88;6324366;22;28395;-80
2024/03/18 07:04:28;;;;;;;;;0.00;0.00;;;;;19.12;100.00;101423.63;6296318;22;28423;-83
2024/03/18 07:06:53;;;;;;;;;0.00;0.00;;;;;18.86;100.00;101430.31;6322754;22;28496;-83
2024/03/18 07:09:19;;;;;;;;;1.00;1.00;;;;;19.19;100.00;101426.81;6322443;22;29866;-85
2024/03/18 07:11:45;;;;;;;;;0.00;0.00;;;;;18.94;100.00;101439.53;6324334;22;28362;-83
2024/03/18 07:14:10;;;;;;;;;0.00;0.00;;;;;19.06;100.00;101439.81;6297419;22;28392;-83
2024/03/18 07:16:36;;;;;;;;;0.00;0.00;;;;;19.08;100.00;101432.66;6323067;22;28621;-83
2024/03/18 07:19:01;;;;;;;;;0.00;0.00;;;;;19.13;100.00;101434.13;6324168;22;28254;-83
2024/03/18 07:21:27;;;;;;;;;0.00;0.00;;;;;19.39;100.00;101434.50;6270118;22;35897;-83
2024/03/18 07:23:52;;;;;;;;;1.00;1.00;;;;;19.37;100.00;101438.13;6324219;22;43995;-83
2024/03/18 07:26:18;;;;;;;;;0.00;0.00;;;;;19.43;100.00;101440.47;6297048;22;28368;-83
2024/03/18 07:28:44;;;;;;;;;0.00;0.00;;;;;19.49;100.00;101446.22;6294269;22;28674;-83
2024/03/18 07:31:12;;;;;;;;;0.00;0.00;;;;;19.47;100.00;101458.66;6324212;22;28383;-83
2024/03/18 07:33:38;;;;;;;;;0.00;0.00;;;;;19.65;100.00;101464.72;6297598;22;28344;-83
2024/03/18 07:36:04;;;;;;;;;0.00;0.00;;;;;19.77;100.00;101463.22;6323753;22;47697;-83
2024/03/18 07:38:31;;;;;;;;;3.00;3.00;;;;;19.77;100.00;101468.50;6323368;22;30164;-84
2024/03/18 07:40:56;;;;;;;;;0.00;0.00;;;;;19.79;100.00;101471.91;6296882;22;28346;-83
2024/03/18 07:43:21;;;;;;;;;0.00;0.00;;;;;19.79;100.00;101471.91;6324923;22;28281;-82
2024/03/18 07:45:47;;;;;;;;;0.00;0.00;;;;;19.79;100.00;101476.34;6294098;22;48044;-83
2024/03/18 07:48:13;;;;;;;;;0.00;0.00;;;;;19.81;100.00;101479.75;6322641;22;28600;-82
2024/03/18 07:50:39;;;;;;;;;0.00;0.00;;;;;19.65;100.00;101484.97;6322460;22;28356;-83
2024/03/18 07:53:04;;;;;;;;;0.00;0.00;;;;;19.68;100.00;101488.31;6296102;22;28420;-82
2024/03/18 07:55:31;;;;;;;;;0.00;0.00;;;;;19.72;100.00;101489.91;6323104;22;28377;-83
2024/03/18 07:57:56;;;;;;;;;0.00;0.00;;;;;19.77;100.00;101489.63;6296472;22;29274;-83
2024/03/18 08:00:21;;;;;;;;;0.00;0.00;;;;;19.79;100.00;101489.56;6295919;22;28452;-83
2024/03/18 08:02:47;;;;;;;;;0.00;0.00;;;;;19.85;100.00;101495.31;6322731;22;28383;-81
2024/03/18 08:05:12;;;;;;;;;0.00;0.00;;;;;19.87;100.00;101503.16;6322219;22;28432;-83
2024/03/18 08:07:39;;;;;;;;;0.00;0.00;;;;;19.82;100.00;101505.25;6295214;22;51874;-81
2024/03/18 08:10:04;;;;;;;;;0.00;0.00;;;;;19.82;100.00;101514.00;6323617;22;33454;-82
2024/03/18 08:12:30;;;;;;;;;0.00;0.00;;;;;19.83;100.00;101505.13;6323690;22;28343;-82
2024/03/18 08:14:55;;;;;;;;;0.00;0.00;;;;;19.84;100.00;101513.94;6323315;22;45725;-82
2024/03/18 08:17:21;;;;;;;;;0.00;0.00;;;;;19.78;100.00;101514.25;6323996;22;28314;-84
2024/03/18 08:19:46;;;;;;;;;0.00;0.00;;;;;19.79;100.00;101521.25;6322950;22;28347;-82
2024/03/18 08:22:16;;;;;;;;;0.75;0.75;;;;;19.74;100.00;101526.78;6323201;22;28407;-84
2024/03/18 08:24:46;;;;;;;;;0.00;0.00;;;;;19.81;100.00;101537.88;6324458;22;28494;-83
2024/03/18 08:27:14;;;;;;;;;0.00;0.00;;;;;19.80;100.00;101539.66;6323976;22;28302;-83
2024/03/18 08:29:40;;;;;;;;;0.00;0.00;;;;;19.81;100.00;101538.72;6296052;22;28569;-83
2024/03/18 08:32:06;;;;;;;;;0.00;0.00;;;;;19.88;100.00;101539.22;6322185;22;28434;-83
2024/03/18 08:34:31;;;;;;;;;0.00;0.00;;;;;19.91;100.00;101545.19;6324232;22;28459;-83
2024/03/18 08:36:59;;;;;;;;;0.00;0.00;;;;;20.00;100.00;101553.53;6324199;22;28410;-83
2024/03/18 08:39:24;;;;;;;;;0.00;0.00;;;;;19.99;100.00;101547.41;6323033;22;28277;-83
2024/03/18 08:41:50;;;;;;;;;0.00;0.00;;;;;19.99;100.00;101549.22;6323993;22;28226;-83
2024/03/18 08:44:15;;;;;;;;;0.00;0.00;;;;;20.08;100.00;101546.91;6321697;22;47419;-82
2024/03/18 08:46:42;;;;;;;;;0.00;0.00;;;;;20.21;100.00;101547.06;6296021;22;30085;-84
2024/03/18 08:49:08;;;;;;;;;0.00;0.00;;;;;20.32;100.00;101546.47;6323698;22;28398;-82
2024/03/18 08:51:34;;;;;;;;;0.00;0.00;;;;;20.36;100.00;101545.34;6323766;22;28339;-83
2024/03/18 08:53:59;;;;;;;;;0.00;0.00;;;;;20.50;100.00;101547.16;6296572;22;28397;-83
2024/03/18 08:56:25;;;;;;;;;0.00;0.00;;;;;20.68;100.00;101542.66;6295114;22;28523;-83
2024/03/18 08:58:50;;;;;;;;;0.00;0.00;;;;;20.81;100.00;101550.72;6324176;22;28436;-83
2024/03/18 09:01:15;;;;;;;;;0.00;0.00;;;;;20.84;100.00;101545.25;6296303;22;28417;-83
2024/03/18 09:03:41;;;;;;;;;0.00;0.00;;;;;20.92;100.00;101547.44;6323650;22;32092;-84
2024/03/18 09:06:06;;;;;;;;;0.00;0.00;;;;;21.00;100.00;101547.81;6323209;22;28415;-82
2024/03/18 09:08:32;;;;;;;;;0.00;0.00;;;;;21.04;100.00;101555.50;6296191;22;28405;-82
2024/03/18 09:10:58;;;;;;;;;0.00;0.00;;;;;21.11;100.00;101552.47;6323861;22;28380;-82
2024/03/18 09:13:24;;;;;;;;;0.00;0.00;;;;;21.15;100.00;101554.81;6323433;22;28467;-82
2024/03/18 09:15:49;;;;;;;;;0.00;0.00;;;;;21.13;100.00;101553.22;6324346;22;28972;-82
2024/03/18 09:18:14;;;;;;;;;0.00;0.00;;;;;21.09;100.00;101552.56;6322927;22;42866;-82
2024/03/18 09:20:40;;;;;;;;;0.00;0.00;;;;;21.12;100.00;101560.31;6323999;22;33022;-83
2024/03/18 09:23:08;;;;;;;;;0.00;0.00;;;;;21.09;100.00;101563.13;6269342;22;28884;-82
2024/03/18 09:25:35;;;;;;;;;0.00;0.00;;;;;21.04;100.00;101555.50;6323714;22;28727;-84
2024/03/18 09:28:00;;;;;;;;;0.00;0.00;;;;;21.16;100.00;101561.00;6323651;22;28285;-83
2024/03/18 09:30:27;;;;;;;;;0.00;0.00;;;;;21.16;100.00;101561.84;6296284;22;28451;-83
2024/03/18 09:32:53;;;;;;;;;0.00;0.00;;;;;21.24;100.00;101572.78;6323078;22;28459;-82
2024/03/18 09:35:18;;;;;;;;;0.00;0.00;;;;;21.46;100.00;101571.53;6295752;22;34969;-82
2024/03/18 09:37:44;;;;;;;;;0.00;0.00;;;;;21.77;100.00;101565.16;6295871;22;28383;-83
2024/03/18 09:40:10;;;;;;;;;0.00;0.00;;;;;21.89;100.00;101552.94;6322618;22;42783;-82
2024/03/18 09:42:36;;;;;;;;;0.00;0.00;;;;;21.99;100.00;101564.66;6323720;22;28300;-82
2024/03/18 09:45:02;;;;;;;;;0.00;0.00;;;;;21.99;100.00;101574.38;6324003;22;29675;-82
2024/03/18 09:47:31;;;;;;;;;0.00;0.00;;;;;22.01;100.00;101570.72;6295541;22;28436;-82
2024/03/18 09:49:56;;;;;;;;;1.50;1.50;;;;;21.93;100.00;101565.03;6323740;22;28329;-82
2024/03/18 09:52:22;;;;;;;;;0.00;0.00;;;;;21.82;100.00;101572.81;6322893;22;49669;-82
2024/03/18 09:54:50;;;;;;;;;0.00;0.00;;;;;21.80;100.00;101572.94;6323258;22;28491;-82
2024/03/18 09:57:28;;;;;;;;;0.00;0.00;;;;;21.72;100.00;101575.19;6322080;22;28605;-83
2024/03/18 09:59:53;;;;;;;;;0.00;0.00;;;;;21.55;100.00;101572.75;6297060;22;28471;-82
2024/03/18 10:02:19;;;;;;;;;0.00;0.00;;;;;21.68;100.00;101568.41;6296339;22;28294;-83
2024/03/18 10:04:45;;;;;;;;;0.00;0.00;;;;;21.77;100.00;101578.41;6296684;22;29519;-82
2024/03/18 10:07:14;;;;;;;;;0.00;0.00;;;;;21.90;100.00;101582.94;6323367;22;28451;-82
2024/03/18 10:09:41;;;;;;;;;0.00;0.00;;;;;21.90;100.00;101583.81;6323990;22;28312;-82
2024/03/18 10:12:16;;;;;;;;;0.00;0.00;;;;;21.99;100.00;101577.91;6296726;22;28369;-82
2024/03/18 10:14:44;;;;;;;;;1.50;1.50;;;;;22.06;100.00;101573.06;6323600;22;28349;-82
2024/03/18 10:17:20;;;;;;;;;0.00;0.00;;;;;22.18;100.00;101576.72;6293872;22;28708;-82
2024/03/18 10:19:45;;;;;;;;;0.00;0.00;;;;;22.07;100.00;101571.28;6297584;22;28344;-82
2024/03/18 10:22:12;;;;;;;;;0.00;0.00;;;;;22.04;100.00;101573.16;6323566;22;28354;-82
2024/03/18 10:24:42;;;;;;;;;0.00;0.00;;;;;22.20;100.00;101566.88;6323288;22;28397;-82
2024/03/18 10:27:08;;;;;;;;;0.00;0.00;;;;;22.49;100.00;101567.66;6325135;22;28187;-82
2024/03/18 10:29:34;;;;;;;;;0.00;0.00;;;;;22.68;100.00;101569.94;6297206;22;28457;-83
2024/03/18 10:31:59;;;;;;;;;0.00;0.00;;;;;22.75;100.00;101562.38;6296208;22;28331;-82
2024/03/18 10:34:26;;;;;;;;;0.00;0.00;;;;;22.91;100.00;101559.56;6295844;22;29212;-82
2024/03/18 10:36:55;;;;;;;;;0.00;0.00;;;;;23.22;100.00;101566.31;6296399;22;42237;-81
2024/03/18 10:39:35;;;;;;;;;0.00;0.00;;;;;23.35;100.00;101566.31;6297209;22;28343;-81
2024/03/18 10:42:03;;;;;;;;;0.00;0.00;;;;;23.49;100.00;101562.66;6296084;22;28767;-83
2024/03/18 10:44:32;;;;;;;;;0.00;0.00;;;;;23.58;100.00;101562.00;6296617;22;28469;-82
2024/03/18 10:46:59;;;;;;;;;0.00;0.00;;;;;23.70;100.00;101561.16;6297275;22;28408;-83
2024/03/18 10:49:25;;;;;;;;;0.00;0.00;;;;;23.69;100.00;101566.56;6323905;22;28385;-83
2024/03/18 10:51:51;;;;;;;;;0.00;0.00;;;;;23.72;100.00;101561.88;6323762;22;48364;-82
2024/03/18 10:54:17;;;;;;;;;0.00;0.00;;;;;23.88;100.00;101560.81;6296794;22;34630;-83
2024/03/18 10:56:47;;;;;;;;;0.00;0.00;;;;;23.93;100.00;101551.53;6324825;22;28509;-82
2024/03/18 10:59:14;;;;;;;;;0.00;0.00;;;;;24.16;100.00;101554.31;6322673;22;28668;-82
2024/03/18 11:01:40;;;;;;;;;0.00;0.00;;;;;24.34;100.00;101555.63;6325163;22;28350;-82
2024/03/18 11:04:21;;;;;;;;;0.00;0.00;;;;;24.47;100.00;101555.56;6297280;22;29187;-83
2024/03/18 11:06:49;;;;;;;;;0.00;0.00;;;;;24.44;100.00;101547.81;6324232;22;28339;-82
2024/03/18 11:09:16;;;;;;;;;0.00;0.00;;;;;24.28;100.00;101544.59;6297609;22;28369;-82
2024/03/18 11:11:42;;;;;;;;;0.00;0.00;;;;;24.07;100.00;101552.34;6325200;22;28562;-83
2024/03/18 11:14:11;;;;;;;;;0.00;0.00;;;;;23.87;100.00;101551.16;6296524;22;29846;-82
2024/03/18 11:16:42;;;;;;;;;0.00;0.00;;;;;23.62;100.00;101549.34;6294594;22;29400;-82